WetterOnline ( https://www.wetteronline.de )

Wetter aktuell Dommitzsch

Aktuelles Wetter: Wittenberg (106m)

6-stündlich | Neueste Meldungen
Ortszeit Temperatur Wetter
So, 09.05. 14:00 24.0° C wolkenlos
So, 09.05. 8:00 12.6° C wolkig
So, 09.05. 2:00 10.7° C bedeckt
Sa, 08.05. 20:00 14.3° C bewölkt
Sa, 08.05. 14:00 13.6° C wolkig
Sa, 08.05. 8:00 5.5° C wolkenlos
Sa, 08.05. 2:00 4.4° C leicht bewölkt
Fr, 07.05. 20:00 8.1° C wolkig
Ortszeit Temperatur Wetter
So, 09.05. 14:30 24.4° C fast wolkenlos
So, 09.05. 14:20 24.4° C fast wolkenlos
So, 09.05. 14:10 24.4° C wolkenlos
So, 09.05. 14:00 24.0° C wolkenlos
So, 09.05. 13:50 24.0° C wolkenlos
So, 09.05. 13:40 24.0° C wolkenlos
So, 09.05. 13:30 24.1° C wolkenlos
So, 09.05. 13:00 23.1° C wolkenlos
So, 09.05. 12:30 22.1° C leicht bewölkt
So, 09.05. 12:00 21.7° C leicht bewölkt
So, 09.05. 11:30 20.9° C leicht bewölkt
So, 09.05. 11:00 20.2° C leicht bewölkt
Ortszeit Relative Feuchte Sichtweite
So, 09.05. 14:00 35% 65 km
So, 09.05. 8:00 62% >70 km
So, 09.05. 2:00 61% 45 km
Sa, 08.05. 20:00 38% >70 km
Sa, 08.05. 14:00 39% 45 km
Sa, 08.05. 8:00 79% 25 km
Sa, 08.05. 2:00 80% 60 km
Fr, 07.05. 20:00 64% 65 km
Ortszeit Relative Feuchte Sichtweite
So, 09.05. 14:30 35% 65 km
So, 09.05. 14:20 35% -
So, 09.05. 14:10 36% -
So, 09.05. 14:00 35% 65 km
So, 09.05. 13:50 35% -
So, 09.05. 13:40 35% -
So, 09.05. 13:30 36% >70 km
So, 09.05. 13:00 37% 60 km
So, 09.05. 12:30 39% 65 km
So, 09.05. 12:00 40% 45 km
So, 09.05. 11:30 40% >70 km
So, 09.05. 11:00 44% 55 km
Ortszeit Niederschlagsmenge Niederschlagsart
So, 09.05. 14:00 0.0 l/m2 in 6 Std. -
So, 09.05. 8:00 0.1 l/m2 in 12 Std. -
So, 09.05. 2:00 0.1 l/m2 in 6 Std. Regen
Sa, 08.05. 20:00 0.0 l/m2 in 12 Std. -
Sa, 08.05. 14:00 0.0 l/m2 in 6 Std. -
Sa, 08.05. 8:00 0.1 l/m2 in 12 Std. -
Sa, 08.05. 2:00 0.1 l/m2 in 6 Std. Regen
Fr, 07.05. 20:00 1 l/m2 in 12 Std. Regen
Ortszeit Niederschlagsmenge Niederschlagsart
So, 09.05. 14:30 0.0 l/m2 in 1 Std. -
So, 09.05. 14:20 keine Meldung -
So, 09.05. 14:10 keine Meldung -
So, 09.05. 14:00 0.0 l/m2 in 1 Std. -
So, 09.05. 13:50 keine Meldung -
So, 09.05. 13:40 keine Meldung -
So, 09.05. 13:30 0.0 l/m2 in 1 Std. -
So, 09.05. 13:00 0.0 l/m2 in 1 Std. -
So, 09.05. 12:30 0.0 l/m2 in 1 Std. -
So, 09.05. 12:00 0.0 l/m2 in 1 Std. -
So, 09.05. 11:30 0.0 l/m2 in 1 Std. -
So, 09.05. 11:00 0.0 l/m2 in 1 Std. -
Ortszeit Stärke Spitze Richtung
km/h Bft. km/h Grad Sektor
So, 09.05. 14:00 14 3 36 190° S
So, 09.05. 8:00 7 2 14 130° SO
So, 09.05. 2:00 9 2 24 130° SO
Sa, 08.05. 20:00 11 2 29 150° SO
Sa, 08.05. 14:00 14 3 40 240° SW
Sa, 08.05. 8:00 4 1 11 240° SW
Sa, 08.05. 2:00 7 2 32 270° W
Fr, 07.05. 20:00 11 2 43 290° W
Ortszeit Stärke Spitze Richtung
km/h Bft. km/h Grad Sektor
So, 09.05. 14:30 13 3 28 200° S
So, 09.05. 14:20 13 3 - 200° S
So, 09.05. 14:10 15 3 - 210° SW
So, 09.05. 14:00 14 3 29 190° S
So, 09.05. 13:50 14 3 - 190° S
So, 09.05. 13:40 14 3 - 200° S
So, 09.05. 13:30 14 3 25 180° S
So, 09.05. 13:00 19 3 31 190° S
So, 09.05. 12:30 15 3 30 200° S
So, 09.05. 12:00 17 3 33 190° S
So, 09.05. 11:30 22 4 36 170° S
So, 09.05. 11:00 17 3 26 170° S
Ortszeit Untergrenze Bedeckung Gattung
total tief tief mittel hoch
So, 09.05. 14:00 10500 m 0/8 0/8 - - -
So, 09.05. 8:00 8100 m 8/8 0/8 - - -
So, 09.05. 2:00 1500 m 8/8 8/8 - - -
Sa, 08.05. 20:00 2100 m 8/8 7/8 - - -
Sa, 08.05. 14:00 2100 m 8/8 2/8 - - -
Sa, 08.05. 8:00 - 0/8 0/8 - - -
Sa, 08.05. 2:00 2100 m 2/8 2/8 - - -
Fr, 07.05. 20:00 1800 m 4/8 6/8 - - -
Ortszeit Bedeckungsgrad in Achtel und Wolkenuntergrenze
So, 09.05. 14:30 1(9000m)
So, 09.05. 14:20 1(9000m)
So, 09.05. 14:10 keine Wolken
So, 09.05. 14:00 1(10500m)
So, 09.05. 13:50 keine Wolken
So, 09.05. 13:40 keine Wolken
So, 09.05. 13:30 keine Wolken
So, 09.05. 13:00 keine Wolken
So, 09.05. 12:30 2(9000m) 5(10500m)
So, 09.05. 12:00 7(10500m)
So, 09.05. 11:30 6(10500m)
So, 09.05. 11:00 1(8100m) 7(10500m)
Ortszeit Luftdruck NN (hPa) Tendenz (hPa in 3 Std.)
So, 09.05. 14:00 1009 - 1,2
So, 09.05. 8:00 1012 - 0,1
So, 09.05. 2:00 1013 - 1,2
Sa, 08.05. 20:00 1015 - 1,4
Sa, 08.05. 14:00 1018 - 1,0
Sa, 08.05. 8:00 1020 + 0,9
Sa, 08.05. 2:00 1018 + 1,0
Fr, 07.05. 20:00 1016 + 2,6
Ortszeit Luftdruck NN (hPa) Tendenz (hPa in 3 Std.)
So, 09.05. 14:30 1009 - 1,2
So, 09.05. 14:20 1009 keine Meldung
So, 09.05. 14:10 1009 keine Meldung
So, 09.05. 14:00 1009 - 1,2
So, 09.05. 13:50 1009 keine Meldung
So, 09.05. 13:40 1010 keine Meldung
So, 09.05. 13:30 1010 - 1,3
So, 09.05. 13:00 1010 - 1,2
So, 09.05. 12:30 1010 - 1,0
So, 09.05. 12:00 1010 - 0,9
So, 09.05. 11:30 1011 - 1,0
So, 09.05. 11:00 1011 - 0,9
Ortszeit Schneehöhe (cm)
So, 09.05. 14:00 0
So, 09.05. 8:00 0
So, 09.05. 2:00 0
Sa, 08.05. 20:00 0
Sa, 08.05. 14:00 0
Sa, 08.05. 8:00 0
Sa, 08.05. 2:00 0
Fr, 07.05. 20:00 0
Ortszeit Schneehöhe (cm)
So, 09.05. 14:30 0
So, 09.05. 14:20 0
So, 09.05. 14:10 0
So, 09.05. 14:00 0
So, 09.05. 13:50 0
So, 09.05. 13:40 0
So, 09.05. 13:30 0
So, 09.05. 13:00 0
So, 09.05. 12:30 0
So, 09.05. 12:00 0
So, 09.05. 11:30 0
So, 09.05. 11:00 0
Link zu dieser Seite / Seite empfehlen

Das Wetter in ...